Aviation Digital Data Service (ADDS)

Output produced by METARs form (2038 UTC 31 October 2014)
found at http://www.aviationweather.gov/adds/metars/
 
KDOV 311958Z AUTO 02009KT 10SM OVC055 11/04 A2985 RMK AO2 SLP111 T01140041
TAF KDOV 3116/0122 36009KT 9999 SCT060 BKN080 QNH2980INS 
     BECMG 0101/0102 36009KT 9999 SCT010 BKN020 OVC150 QNH2971INS 
     BECMG 0106/0107 01010G15KT 8000 -RA OVC010 QNH2971INS 
     BECMG 0114/0115 02015G25KT 4800 -RA OVC010 620705 QNH2975INS TX14/3119Z TN08/0111Z